createdAt,value
2019-02-04T00:00:33.239Z,0.64
2019-02-04T00:01:33.186Z,0.61
2019-02-04T00:02:33.166Z,0.60
2019-02-04T00:03:33.155Z,0.68
2019-02-04T00:04:33.149Z,0.65
2019-02-04T00:05:33.132Z,0.61
2019-02-04T00:06:33.139Z,0.58
2019-02-04T00:07:33.181Z,0.57
2019-02-04T00:08:33.139Z,0.52
2019-02-04T00:09:33.117Z,0.60
2019-02-04T00:10:33.097Z,0.64
2019-02-04T00:11:33.123Z,0.52
2019-02-04T00:12:33.058Z,0.58
2019-02-04T00:13:33.059Z,0.57
2019-02-04T00:14:33.037Z,0.57
2019-02-04T00:15:33.023Z,0.58
2019-02-04T00:16:40.572Z,0.51
2019-02-04T00:17:34.000Z,0.57
2019-02-04T00:18:33.005Z,0.51
2019-02-04T00:19:32.985Z,0.43
2019-02-04T00:20:32.981Z,0.43
2019-02-04T00:21:32.998Z,0.46
2019-02-04T00:22:32.948Z,0.42
2019-02-04T00:23:32.936Z,0.43
2019-02-04T00:24:32.925Z,0.46
2019-02-04T00:25:32.926Z,0.39
2019-02-04T00:26:32.903Z,0.39
2019-02-04T00:27:32.911Z,0.43
2019-02-04T00:28:32.885Z,0.42
2019-02-04T00:29:32.924Z,0.43
2019-02-04T00:30:33.532Z,0.45
2019-02-04T00:31:32.863Z,0.43
2019-02-04T00:32:32.923Z,0.38
2019-02-04T00:33:32.826Z,0.43
2019-02-04T00:34:32.819Z,0.43
2019-02-04T00:35:32.814Z,0.46
2019-02-04T00:36:32.811Z,0.39
2019-02-04T00:37:32.786Z,0.43
2019-02-04T00:38:32.769Z,0.43
2019-02-04T00:39:32.771Z,0.41
2019-02-04T00:40:32.751Z,0.41
2019-02-04T00:41:32.745Z,0.42
2019-02-04T00:42:32.742Z,0.41
2019-02-04T00:43:32.731Z,0.38
2019-02-04T00:44:32.710Z,0.41
2019-02-04T00:45:32.700Z,0.31
2019-02-04T00:46:32.689Z,0.42
2019-02-04T00:47:32.688Z,0.33
2019-02-04T00:48:32.664Z,0.33
2019-02-04T00:49:32.789Z,0.34
2019-02-04T00:50:32.682Z,0.30
2019-02-04T00:51:32.631Z,0.34
2019-02-04T00:52:32.617Z,0.21
2019-02-04T00:53:32.606Z,0.25
2019-02-04T00:54:32.599Z,0.27
2019-02-04T00:55:32.584Z,0.27
2019-02-04T00:56:32.582Z,0.23
2019-02-04T00:57:32.563Z,0.23
2019-02-04T00:58:32.553Z,0.25
2019-02-04T00:59:32.557Z,0.16
2019-02-04T01:00:32.531Z,0.18
2019-02-04T01:01:32.536Z,0.23
2019-02-04T01:02:32.513Z,0.28
2019-02-04T01:03:32.504Z,0.21
2019-02-04T01:04:32.514Z,0.23
2019-02-04T01:05:32.481Z,0.18
2019-02-04T01:06:32.469Z,0.23
2019-02-04T01:07:32.454Z,0.20
2019-02-04T01:08:32.443Z,0.12
2019-02-04T01:09:32.452Z,0.10
2019-02-04T01:10:32.438Z,0.10
2019-02-04T01:11:32.412Z,0.06
2019-02-04T01:12:32.401Z,0.02
2019-02-04T01:13:32.388Z,0.15
2019-02-04T01:14:32.396Z,0.10
2019-02-04T01:15:32.375Z,0.07
2019-02-04T01:16:33.508Z,0.05
2019-02-04T01:17:32.344Z,0.02
2019-02-04T01:18:32.544Z,0.07
2019-02-04T01:19:32.324Z,0.00
2019-02-04T01:20:32.321Z,-0.01
2019-02-04T01:21:32.303Z,0.09
2019-02-04T01:22:32.309Z,-0.06
2019-02-04T01:23:32.289Z,0.03
2019-02-04T01:24:32.275Z,-0.05
2019-02-04T01:25:32.356Z,-0.01
2019-02-04T01:26:32.253Z,-0.01
2019-02-04T01:27:32.242Z,0.02
2019-02-04T01:28:33.009Z,0.00
2019-02-04T01:29:32.216Z,-0.08
2019-02-04T01:30:32.226Z,-0.01
2019-02-04T01:31:32.278Z,0.00
2019-02-04T01:32:33.046Z,-0.11
2019-02-04T01:33:32.176Z,-0.12
2019-02-04T01:34:32.162Z,-0.08
2019-02-04T01:35:32.159Z,-0.11
2019-02-04T01:36:32.145Z,-0.15
2019-02-04T01:37:32.162Z,-0.09
2019-02-04T01:38:32.145Z,-0.13
2019-02-04T01:39:32.114Z,-0.08
2019-02-04T01:40:32.104Z,-0.15
2019-02-04T01:41:33.288Z,-0.04
2019-02-04T01:42:32.078Z,-0.06
2019-02-04T01:43:34.014Z,-0.15
2019-02-04T01:44:32.060Z,-0.12
2019-02-04T01:45:32.049Z,-0.18
2019-02-04T01:46:32.033Z,-0.22
2019-02-04T01:47:32.050Z,-0.11
2019-02-04T01:48:32.049Z,-0.13
2019-02-04T01:49:32.034Z,-0.09
2019-02-04T01:50:31.993Z,-0.11
2019-02-04T01:51:31.980Z,-0.22
2019-02-04T01:52:31.979Z,-0.13
2019-02-04T01:53:31.961Z,-0.27
2019-02-04T01:54:32.084Z,-0.24
2019-02-04T01:55:31.944Z,-0.23
2019-02-04T01:56:31.929Z,-0.23
2019-02-04T01:57:31.917Z,-0.26
2019-02-04T01:58:31.959Z,-0.23
2019-02-04T01:59:31.897Z,-0.24
2019-02-04T02:00:31.939Z,-0.30
2019-02-04T02:01:31.869Z,-0.16
2019-02-04T02:02:33.050Z,-0.19
2019-02-04T02:03:31.849Z,-0.19
2019-02-04T02:04:31.839Z,-0.26
2019-02-04T02:05:31.826Z,-0.23
2019-02-04T02:06:31.820Z,-0.16
2019-02-04T02:07:31.844Z,-0.15
2019-02-04T02:08:31.795Z,-0.23
2019-02-04T02:09:31.792Z,-0.16
2019-02-04T02:10:31.808Z,-0.27
2019-02-04T02:11:31.762Z,-0.31
2019-02-04T02:12:31.751Z,-0.22
2019-02-04T02:13:31.739Z,-0.22
2019-02-04T02:14:31.734Z,-0.27
2019-02-04T02:15:31.720Z,-0.34
2019-02-04T02:16:31.734Z,-0.18
2019-02-04T02:17:31.703Z,-0.26
2019-02-04T02:18:31.693Z,-0.24
2019-02-04T02:19:31.676Z,-0.27
2019-02-04T02:20:31.673Z,-0.26
2019-02-04T02:21:31.714Z,-0.33
2019-02-04T02:22:31.648Z,-0.37
2019-02-04T02:23:31.633Z,-0.30
2019-02-04T02:24:31.630Z,-0.24
2019-02-04T02:25:31.617Z,-0.30
2019-02-04T02:26:31.619Z,-0.30
2019-02-04T02:27:31.592Z,-0.33
2019-02-04T02:28:31.597Z,-0.24
2019-02-04T02:29:31.638Z,-0.26
2019-02-04T02:30:31.558Z,-0.29
2019-02-04T02:31:31.555Z,-0.36
2019-02-04T02:32:31.591Z,-0.33
2019-02-04T02:33:31.526Z,-0.41
2019-02-04T02:34:31.516Z,-0.36
2019-02-04T02:35:31.503Z,-0.41
2019-02-04T02:36:31.501Z,-0.37
2019-02-04T02:37:31.486Z,-0.34
2019-02-04T02:38:31.532Z,-0.39
2019-02-04T02:39:31.466Z,-0.41
2019-02-04T02:40:31.454Z,-0.30
2019-02-04T02:41:31.441Z,-0.37
2019-02-04T02:42:31.426Z,-0.39
2019-02-04T02:43:31.428Z,-0.36
2019-02-04T02:44:31.439Z,-0.45
2019-02-04T02:45:31.396Z,-0.39
2019-02-04T02:46:31.389Z,-0.36
2019-02-04T02:47:38.488Z,-0.42
2019-02-04T02:48:32.364Z,-0.42
2019-02-04T02:49:31.353Z,-0.42
2019-02-04T02:50:31.381Z,-0.42
2019-02-04T02:51:31.333Z,-0.34
2019-02-04T02:52:31.347Z,-0.42
2019-02-04T02:53:31.313Z,-0.45
2019-02-04T02:54:31.308Z,-0.45
2019-02-04T02:55:31.284Z,-0.45
2019-02-04T02:56:31.324Z,-0.44
2019-02-04T02:57:31.271Z,-0.37
2019-02-04T02:58:31.253Z,-0.41
2019-02-04T02:59:31.240Z,-0.34
2019-02-04T03:00:31.246Z,-0.41
2019-02-04T03:01:31.222Z,-0.48
2019-02-04T03:02:31.209Z,-0.47
2019-02-04T03:03:31.202Z,-0.50
2019-02-04T03:04:31.243Z,-0.47
2019-02-04T03:05:31.176Z,-0.52
2019-02-04T03:06:31.164Z,-0.45
2019-02-04T03:07:31.156Z,-0.55
2019-02-04T03:08:31.148Z,-0.54
2019-02-04T03:09:31.132Z,-0.39
2019-02-04T03:10:31.253Z,-0.44
2019-02-04T03:11:31.115Z,-0.45
2019-02-04T03:12:31.106Z,-0.44
2019-02-04T03:13:31.099Z,-0.37
2019-02-04T03:14:31.114Z,-0.37
2019-02-04T03:15:31.105Z,-0.42
2019-02-04T03:16:31.064Z,-0.37
2019-02-04T03:17:31.049Z,-0.42
2019-02-04T03:18:31.046Z,-0.45
2019-02-04T03:19:31.023Z,-0.47
2019-02-04T03:20:31.028Z,-0.47
2019-02-04T03:21:31.005Z,-0.47
2019-02-04T03:22:30.994Z,-0.51
2019-02-04T03:23:31.008Z,-0.44
2019-02-04T03:24:30.970Z,-0.44
2019-02-04T03:25:30.959Z,-0.45
2019-02-04T03:26:30.985Z,-0.39
2019-02-04T03:27:30.964Z,-0.48
2019-02-04T03:28:30.934Z,-0.44
2019-02-04T03:29:30.916Z,-0.42
2019-02-04T03:30:30.941Z,-0.45
2019-02-04T03:31:30.954Z,-0.44
2019-02-04T03:32:30.889Z,-0.50
2019-02-04T03:33:30.879Z,-0.42
2019-02-04T03:34:30.863Z,-0.51
2019-02-04T03:35:30.854Z,-0.45
2019-02-04T03:36:30.843Z,-0.48
2019-02-04T03:37:30.838Z,-0.51
2019-02-04T03:38:30.815Z,-0.52
2019-02-04T03:39:30.806Z,-0.51
2019-02-04T03:40:30.892Z,-0.51
2019-02-04T03:41:30.820Z,-0.48
2019-02-04T03:42:30.782Z,-0.57
2019-02-04T03:43:30.760Z,-0.59
2019-02-04T03:44:30.758Z,-0.59
2019-02-04T03:45:30.740Z,-0.55
2019-02-04T03:46:30.743Z,-0.54
2019-02-04T03:47:30.718Z,-0.48
2019-02-04T03:48:30.724Z,-0.47
2019-02-04T03:49:30.701Z,-0.59
2019-02-04T03:50:30.690Z,-0.48
2019-02-04T03:51:30.676Z,-0.59
2019-02-04T03:52:30.704Z,-0.54
2019-02-04T03:53:30.658Z,-0.55
2019-02-04T03:54:30.647Z,-0.52
2019-02-04T03:55:30.636Z,-0.52
2019-02-04T03:56:30.620Z,-0.52
2019-02-04T03:57:30.608Z,-0.39
2019-02-04T03:58:30.610Z,-0.50
2019-02-04T03:59:30.591Z,-0.45
2019-02-04T04:00:30.582Z,-0.42
2019-02-04T04:01:30.568Z,-0.48
2019-02-04T04:02:30.555Z,-0.48
2019-02-04T04:03:30.595Z,-0.45
2019-02-04T04:04:30.538Z,-0.55
2019-02-04T04:05:30.526Z,-0.50
2019-02-04T04:06:30.511Z,-0.55
2019-02-04T04:07:30.504Z,-0.47
2019-02-04T04:08:30.535Z,-0.47
2019-02-04T04:09:30.485Z,-0.45
2019-02-04T04:10:30.467Z,-0.52
2019-02-04T04:11:30.457Z,-0.54
2019-02-04T04:12:30.451Z,-0.51
2019-02-04T04:13:30.444Z,-0.48
2019-02-04T04:14:30.458Z,-0.55
2019-02-04T04:15:30.555Z,-0.51
2019-02-04T04:16:30.406Z,-0.51
2019-02-04T04:17:30.389Z,-0.47
2019-02-04T04:18:30.387Z,-0.47
2019-02-04T04:19:30.426Z,-0.47
2019-02-04T04:20:30.367Z,-0.45
2019-02-04T04:21:30.351Z,-0.54
2019-02-04T04:22:30.363Z,-0.55
2019-02-04T04:23:30.342Z,-0.52
2019-02-04T04:24:30.320Z,-0.48
2019-02-04T04:25:30.303Z,-0.50
2019-02-04T04:26:30.298Z,-0.51
2019-02-04T04:27:30.313Z,-0.50
2019-02-04T04:28:30.271Z,-0.48
2019-02-04T04:29:30.269Z,-0.47
2019-02-04T04:30:30.252Z,-0.50
2019-02-04T04:31:30.251Z,-0.55
2019-02-04T04:32:30.241Z,-0.57
2019-02-04T04:33:30.236Z,-0.51
2019-02-04T04:34:30.210Z,-0.51
2019-02-04T04:35:30.206Z,-0.55
2019-02-04T04:36:30.193Z,-0.52
2019-02-04T04:37:30.177Z,-0.54
2019-02-04T04:38:30.187Z,-0.52
2019-02-04T04:39:30.151Z,-0.51
2019-02-04T04:40:30.159Z,-0.55
2019-02-04T04:41:30.136Z,-0.48
2019-02-04T04:42:30.123Z,-0.52
2019-02-04T04:43:30.145Z,-0.55
2019-02-04T04:44:30.098Z,-0.59
2019-02-04T04:45:30.083Z,-0.60
2019-02-04T04:46:30.078Z,-0.60
2019-02-04T04:47:30.103Z,-0.60
2019-02-04T04:48:30.056Z,-0.59
2019-02-04T04:49:30.046Z,-0.50
2019-02-04T04:50:30.034Z,-0.51
2019-02-04T04:51:30.025Z,-0.59
2019-02-04T04:52:30.024Z,-0.50
2019-02-04T04:53:30.057Z,-0.55
2019-02-04T04:54:30.000Z,-0.59
2019-02-04T04:55:29.985Z,-0.60
2019-02-04T04:56:29.973Z,-0.55
2019-02-04T04:57:29.954Z,-0.55
2019-02-04T04:58:30.001Z,-0.51
2019-02-04T04:59:29.966Z,-0.51
2019-02-04T05:00:29.924Z,-0.50
2019-02-04T05:01:29.910Z,-0.59
2019-02-04T05:02:29.904Z,-0.51
2019-02-04T05:03:29.976Z,-0.48
2019-02-04T05:04:29.883Z,-0.55
2019-02-04T05:05:29.874Z,-0.60
2019-02-04T05:06:29.863Z,-0.57
2019-02-04T05:07:29.852Z,-0.62
2019-02-04T05:08:29.835Z,-0.52
2019-02-04T05:09:29.884Z,-0.66
2019-02-04T05:10:29.871Z,-0.54
2019-02-04T05:11:29.925Z,-0.54
2019-02-04T05:12:29.799Z,-0.59
2019-02-04T05:13:29.779Z,-0.55
2019-02-04T05:14:29.774Z,-0.57
2019-02-04T05:15:29.771Z,-0.59
2019-02-04T05:16:29.753Z,-0.55
2019-02-04T05:17:29.737Z,-0.57
2019-02-04T05:18:37.718Z,-0.59
2019-02-04T05:19:30.712Z,-0.52
2019-02-04T05:20:29.715Z,-0.62
2019-02-04T05:21:29.701Z,-0.63
2019-02-04T05:22:29.684Z,-0.62
2019-02-04T05:23:29.677Z,-0.66
2019-02-04T05:24:29.665Z,-0.69
2019-02-04T05:25:29.667Z,-0.60
2019-02-04T05:26:29.695Z,-0.60
2019-02-04T05:27:29.631Z,-0.62
2019-02-04T05:28:29.620Z,-0.60
2019-02-04T05:29:29.611Z,-0.55
2019-02-04T05:30:29.595Z,-0.50
2019-02-04T05:31:29.617Z,-0.47
2019-02-04T05:32:29.579Z,-0.42
2019-02-04T05:33:29.576Z,-0.48
2019-02-04T05:34:29.555Z,-0.54
2019-02-04T05:35:29.544Z,-0.52
2019-02-04T05:36:29.535Z,-0.50
2019-02-04T05:37:29.555Z,-0.45
2019-02-04T05:38:29.526Z,-0.52
2019-02-04T05:39:29.496Z,-0.52
2019-02-04T05:40:29.487Z,-0.50
2019-02-04T05:41:29.510Z,-0.44
2019-02-04T05:42:29.469Z,-0.50
2019-02-04T05:43:29.461Z,-0.55
2019-02-04T05:44:29.450Z,-0.47
2019-02-04T05:45:29.434Z,-0.54
2019-02-04T05:46:29.426Z,-0.50
2019-02-04T05:47:29.465Z,-0.50
2019-02-04T05:48:29.399Z,-0.55
2019-02-04T05:49:29.387Z,-0.59
2019-02-04T05:50:29.380Z,-0.54
2019-02-04T05:51:29.368Z,-0.52
2019-02-04T05:52:29.392Z,-0.48
2019-02-04T05:53:29.349Z,-0.47
2019-02-04T05:54:29.344Z,-0.54
2019-02-04T05:55:30.649Z,-0.51
2019-02-04T05:56:29.312Z,-0.57
2019-02-04T05:57:29.305Z,-0.54
2019-02-04T05:58:29.360Z,-0.55
2019-02-04T05:59:29.285Z,-0.55
2019-02-04T06:00:29.276Z,-0.59
2019-02-04T06:01:29.259Z,-0.55
2019-02-04T06:02:29.246Z,-0.57
2019-02-04T06:03:29.260Z,-0.59
2019-02-04T06:04:29.244Z,-0.65
2019-02-04T06:05:29.212Z,-0.70
2019-02-04T06:06:29.209Z,-0.63
2019-02-04T06:07:29.191Z,-0.66
2019-02-04T06:08:29.182Z,-0.70
2019-02-04T06:09:29.201Z,-0.55
2019-02-04T06:10:29.172Z,-0.54
2019-02-04T06:11:29.152Z,-0.60
2019-02-04T06:12:29.145Z,-0.57
2019-02-04T06:13:29.131Z,-0.50
2019-02-04T06:14:29.154Z,-0.54
2019-02-04T06:15:29.117Z,-0.60
2019-02-04T06:16:29.100Z,-0.54
2019-02-04T06:17:29.089Z,-0.51
2019-02-04T06:18:29.090Z,-0.51
2019-02-04T06:19:29.062Z,-0.52
2019-02-04T06:20:29.090Z,-0.45
2019-02-04T06:21:29.045Z,-0.52
2019-02-04T06:22:29.034Z,-0.50
2019-02-04T06:23:29.029Z,-0.47
2019-02-04T06:24:29.016Z,-0.48
2019-02-04T06:25:29.036Z,-0.50
2019-02-04T06:26:28.992Z,-0.52
2019-02-04T06:27:28.980Z,-0.50
2019-02-04T06:28:28.964Z,-0.55
2019-02-04T06:29:28.954Z,-0.45
2019-02-04T06:30:28.989Z,-0.51
2019-02-04T06:31:28.935Z,-0.51
2019-02-04T06:32:28.927Z,-0.48
2019-02-04T06:33:28.914Z,-0.57
2019-02-04T06:34:28.914Z,-0.54
2019-02-04T06:35:28.915Z,-0.57
2019-02-04T06:36:28.892Z,-0.59
2019-02-04T06:37:28.866Z,-0.48
2019-02-04T06:38:28.855Z,-0.57
2019-02-04T06:39:28.843Z,-0.59
2019-02-04T06:40:28.879Z,-0.52
2019-02-04T06:41:28.822Z,-0.54
2019-02-04T06:42:28.821Z,-0.52
2019-02-04T06:43:28.804Z,-0.66
2019-02-04T06:44:28.789Z,-0.65
2019-02-04T06:45:28.792Z,-0.57
2019-02-04T06:46:28.804Z,-0.54
2019-02-04T06:47:28.757Z,-0.51
2019-02-04T06:48:28.746Z,-0.50
2019-02-04T06:49:28.736Z,-0.50
2019-02-04T06:50:28.732Z,-0.42
2019-02-04T06:51:28.716Z,-0.42
2019-02-04T06:52:28.715Z,-0.39
2019-02-04T06:53:28.692Z,-0.42
2019-02-04T06:54:28.683Z,-0.39
2019-02-04T06:55:28.674Z,-0.47
2019-02-04T06:56:28.664Z,-0.48
2019-02-04T06:57:28.675Z,-0.45
2019-02-04T06:58:28.667Z,-0.47
2019-02-04T06:59:28.630Z,-0.41
2019-02-04T07:00:28.621Z,-0.42
2019-02-04T07:01:28.606Z,-0.42
2019-02-04T07:02:28.654Z,-0.41
2019-02-04T07:03:28.591Z,-0.41
2019-02-04T07:04:28.576Z,-0.39
2019-02-04T07:05:28.561Z,-0.44
2019-02-04T07:06:28.555Z,-0.42
2019-02-04T07:07:28.553Z,-0.41
2019-02-04T07:08:28.547Z,-0.37
2019-02-04T07:09:28.522Z,-0.41
2019-02-04T07:10:28.508Z,-0.36
2019-02-04T07:11:28.496Z,-0.34
2019-02-04T07:12:28.490Z,-0.26
2019-02-04T07:13:28.481Z,-0.30
2019-02-04T07:14:28.490Z,-0.29
2019-02-04T07:15:28.460Z,-0.34
2019-02-04T07:16:28.448Z,-0.27
2019-02-04T07:17:28.437Z,-0.27
2019-02-04T07:18:28.436Z,-0.27
2019-02-04T07:19:28.421Z,-0.33
2019-02-04T07:20:28.410Z,-0.31
2019-02-04T07:21:28.388Z,-0.26
2019-02-04T07:22:28.386Z,-0.34
2019-02-04T07:23:28.368Z,-0.33
2019-02-04T07:24:28.384Z,-0.31
2019-02-04T07:25:28.344Z,-0.27
2019-02-04T07:26:28.339Z,-0.22
2019-02-04T07:27:28.329Z,-0.16
2019-02-04T07:28:28.372Z,-0.13
2019-02-04T07:29:28.309Z,-0.13
2019-02-04T07:30:28.309Z,-0.16
2019-02-04T07:31:28.286Z,-0.13
2019-02-04T07:32:28.300Z,-0.13
2019-02-04T07:33:28.264Z,-0.08
2019-02-04T07:34:28.305Z,-0.13
2019-02-04T07:35:28.245Z,-0.11
2019-02-04T07:36:28.230Z,-0.16
2019-02-04T07:37:28.214Z,-0.12
2019-02-04T07:38:28.204Z,-0.16
2019-02-04T07:39:28.195Z,-0.11
2019-02-04T07:40:28.210Z,-0.16
2019-02-04T07:41:28.177Z,-0.04
2019-02-04T07:42:28.166Z,-0.15
2019-02-04T07:43:28.155Z,-0.09
2019-02-04T07:44:28.138Z,-0.13
2019-02-04T07:45:28.662Z,-0.04
2019-02-04T07:46:28.122Z,-0.15
2019-02-04T07:47:28.111Z,-0.13
2019-02-04T07:48:28.097Z,-0.15
2019-02-04T07:49:35.030Z,-0.12
2019-02-04T07:50:29.098Z,-0.05
2019-02-04T07:51:28.069Z,-0.01
2019-02-04T07:52:28.058Z,-0.04
2019-02-04T07:53:28.051Z,0.02
2019-02-04T07:54:28.033Z,-0.04
2019-02-04T07:55:28.020Z,-0.01
2019-02-04T07:56:28.024Z,0.07
2019-02-04T07:57:28.002Z,0.02
2019-02-04T07:58:28.000Z,0.00
2019-02-04T07:59:27.985Z,0.03
2019-02-04T08:00:27.966Z,0.06
2019-02-04T08:01:28.012Z,0.02
2019-02-04T08:02:27.944Z,0.12
2019-02-04T08:03:27.948Z,0.10
2019-02-04T08:04:27.927Z,0.06
2019-02-04T08:05:27.917Z,0.06
2019-02-04T08:06:27.907Z,0.13
2019-02-04T08:07:27.949Z,0.07
2019-02-04T08:08:27.884Z,0.10
2019-02-04T08:09:27.875Z,0.13
2019-02-04T08:10:27.861Z,0.20
2019-02-04T08:11:27.853Z,0.23
2019-02-04T08:12:27.845Z,0.28
2019-02-04T08:13:27.846Z,0.23
2019-02-04T08:14:27.813Z,0.18
2019-02-04T08:15:27.803Z,0.28
2019-02-04T08:16:27.792Z,0.25
2019-02-04T08:17:27.794Z,0.38
2019-02-04T08:18:27.792Z,0.39
2019-02-04T08:19:27.761Z,0.39
2019-02-04T08:20:27.755Z,0.42
2019-02-04T08:21:27.738Z,0.41
2019-02-04T08:22:27.731Z,0.38
2019-02-04T08:23:27.724Z,0.45
2019-02-04T08:24:27.719Z,0.42
2019-02-04T08:25:27.701Z,0.42
2019-02-04T08:26:27.684Z,0.46
2019-02-04T08:27:27.677Z,0.51
2019-02-04T08:28:27.676Z,0.57
2019-02-04T08:29:27.667Z,0.51
2019-02-04T08:30:27.646Z,0.49
2019-02-04T08:31:27.632Z,0.60
2019-02-04T08:32:27.627Z,0.68
2019-02-04T08:33:27.606Z,0.61
2019-02-04T08:34:27.610Z,0.61
2019-02-04T08:35:27.587Z,0.71
2019-02-04T08:36:27.579Z,0.70
2019-02-04T08:37:27.563Z,0.71
2019-02-04T08:38:27.558Z,0.71
2019-02-04T08:39:27.551Z,0.76
2019-02-04T08:40:27.542Z,0.75
2019-02-04T08:41:27.530Z,0.76
2019-02-04T08:42:27.511Z,0.79
2019-02-04T08:43:27.503Z,0.83
2019-02-04T08:44:27.486Z,0.85
2019-02-04T08:45:27.546Z,0.88
2019-02-04T08:46:27.469Z,0.83
2019-02-04T08:47:27.462Z,0.94
2019-02-04T08:48:27.441Z,0.92
2019-02-04T08:49:27.435Z,0.90
2019-02-04T08:50:27.421Z,0.97
2019-02-04T08:51:27.433Z,0.97
2019-02-04T08:52:27.404Z,1.03
2019-02-04T08:53:27.386Z,1.03
2019-02-04T08:54:27.373Z,1.04
2019-02-04T08:55:27.375Z,1.01
2019-02-04T08:56:27.353Z,1.08
2019-02-04T08:57:27.354Z,1.08
2019-02-04T08:58:27.331Z,1.19
2019-02-04T08:59:27.322Z,1.18
2019-02-04T09:00:27.312Z,1.26
2019-02-04T09:01:27.300Z,1.32
2019-02-04T09:02:27.308Z,1.25
2019-02-04T09:03:27.280Z,1.26
2019-02-04T09:04:27.271Z,1.33
2019-02-04T09:05:27.257Z,1.36
2019-02-04T09:06:27.242Z,1.36
2019-02-04T09:07:27.230Z,1.46
2019-02-04T09:08:27.228Z,1.51
2019-02-04T09:09:27.214Z,1.55
2019-02-04T09:10:27.203Z,1.62
2019-02-04T09:11:27.215Z,1.72
2019-02-04T09:12:27.174Z,1.72
2019-02-04T09:13:27.177Z,1.89
2019-02-04T09:14:27.169Z,2.02
2019-02-04T09:15:27.146Z,2.10
2019-02-04T09:16:27.137Z,2.31
2019-02-04T09:17:27.124Z,2.46
2019-02-04T09:18:27.127Z,2.56
2019-02-04T09:19:27.097Z,2.81
2019-02-04T09:20:27.090Z,3.03
2019-02-04T09:21:27.080Z,3.06
2019-02-04T09:22:27.064Z,3.30
2019-02-04T09:23:27.136Z,3.54
2019-02-04T09:24:27.064Z,3.60
2019-02-04T09:25:27.086Z,3.70
2019-02-04T09:26:27.022Z,3.86
2019-02-04T09:27:27.015Z,4.03
2019-02-04T09:28:29.820Z,4.14
2019-02-04T09:29:26.998Z,4.32
2019-02-04T09:30:26.976Z,4.32
2019-02-04T09:31:26.970Z,4.55
2019-02-04T09:32:26.954Z,4.62
2019-02-04T09:33:26.953Z,4.75
2019-02-04T09:34:29.806Z,4.79
2019-02-04T09:35:27.620Z,4.80
2019-02-04T09:36:26.953Z,4.98
2019-02-04T09:37:26.899Z,5.14
2019-02-04T09:38:26.890Z,5.30
2019-02-04T09:39:28.600Z,5.32
2019-02-04T09:40:26.874Z,5.48
2019-02-04T09:41:26.859Z,5.55
2019-02-04T09:42:26.860Z,5.60
2019-02-04T09:43:26.842Z,5.63
2019-02-04T09:44:26.907Z,5.77
2019-02-04T09:45:27.824Z,5.82
2019-02-04T09:46:26.806Z,5.93
2019-02-04T09:47:26.795Z,5.93
2019-02-04T09:48:26.781Z,6.03
2019-02-04T09:49:26.775Z,6.14
2019-02-04T09:50:26.783Z,6.21
2019-02-04T09:51:26.750Z,6.26
2019-02-04T09:52:26.743Z,6.30
2019-02-04T09:53:26.735Z,6.46
2019-02-04T09:54:26.717Z,6.47
2019-02-04T09:55:26.716Z,6.50
2019-02-04T09:56:26.697Z,6.47
2019-02-04T09:57:26.686Z,6.63
2019-02-04T09:58:26.673Z,6.63
2019-02-04T09:59:26.656Z,6.72
2019-02-04T10:00:26.686Z,6.72
2019-02-04T10:01:26.638Z,6.98
2019-02-04T10:02:26.628Z,6.97
2019-02-04T10:03:26.618Z,6.99
2019-02-04T10:04:26.601Z,7.07
2019-02-04T10:05:26.594Z,7.27
2019-02-04T10:06:26.590Z,7.40
2019-02-04T10:07:26.585Z,7.40
2019-02-04T10:08:26.571Z,7.40
2019-02-04T10:09:27.082Z,7.59
2019-02-04T10:10:26.543Z,7.59
2019-02-04T10:11:26.569Z,7.82
2019-02-04T10:12:26.517Z,7.67
2019-02-04T10:13:26.508Z,7.67
2019-02-04T10:14:26.506Z,7.72
2019-02-04T10:15:26.507Z,7.93
2019-02-04T10:16:26.577Z,8.02
2019-02-04T10:17:27.150Z,8.08
2019-02-04T10:18:26.511Z,8.02
2019-02-04T10:19:26.577Z,8.04
2019-02-04T10:20:33.613Z,8.08
2019-02-04T10:21:27.504Z,8.11
2019-02-04T10:22:26.417Z,8.20
2019-02-04T10:23:26.409Z,8.30
2019-02-04T10:24:26.439Z,8.28
2019-02-04T10:25:26.484Z,8.30
2019-02-04T10:26:26.402Z,8.10
2019-02-04T10:27:26.377Z,7.99
2019-02-04T10:28:26.341Z,8.00
2019-02-04T10:29:26.352Z,8.11
2019-02-04T10:30:26.327Z,8.12
2019-02-04T10:31:26.331Z,8.25
2019-02-04T10:32:26.335Z,8.21
2019-02-04T10:33:26.336Z,8.35
2019-02-04T10:34:26.308Z,8.42
2019-02-04T10:35:26.265Z,8.40
2019-02-04T10:36:26.269Z,8.54
2019-02-04T10:37:26.260Z,8.75
2019-02-04T10:38:26.246Z,8.71
2019-02-04T10:39:26.216Z,8.94
2019-02-04T10:40:26.236Z,9.10
2019-02-04T10:41:26.279Z,9.10
2019-02-04T10:42:26.261Z,9.25
2019-02-04T10:43:26.226Z,9.20
2019-02-04T10:44:26.158Z,9.21
2019-02-04T10:45:26.194Z,9.32
2019-02-04T10:46:26.142Z,9.40
2019-02-04T10:47:26.147Z,9.56
2019-02-04T10:48:26.158Z,9.73
2019-02-04T10:49:26.144Z,9.94
2019-02-04T10:50:26.117Z,10.19
2019-02-04T10:51:26.114Z,10.30
2019-02-04T10:52:26.097Z,10.15
2019-02-04T10:53:26.055Z,10.24
2019-02-04T10:54:26.053Z,10.14
2019-02-04T10:55:26.071Z,10.18
2019-02-04T10:56:26.050Z,10.28
2019-02-04T10:57:26.018Z,10.30
2019-02-04T10:58:25.998Z,10.26
2019-02-04T10:59:25.993Z,10.14
2019-02-04T11:00:26.154Z,10.28
2019-02-04T11:01:26.685Z,10.53
2019-02-04T11:02:26.000Z,10.66
2019-02-04T11:03:26.005Z,10.81
2019-02-04T11:04:26.619Z,11.03
2019-02-04T11:05:25.943Z,10.60
2019-02-04T11:06:25.958Z,10.68
2019-02-04T11:07:25.911Z,10.22
2019-02-04T11:08:25.893Z,10.36
2019-02-04T11:09:25.939Z,10.42
2019-02-04T11:10:25.911Z,10.10
2019-02-04T11:11:25.972Z,9.46
2019-02-04T11:12:25.852Z,8.93
2019-02-04T11:13:25.864Z,9.05
2019-02-04T11:14:25.847Z,9.64
2019-02-04T11:15:25.842Z,9.81
2019-02-04T11:16:25.827Z,9.45
2019-02-04T11:17:25.831Z,9.88
2019-02-04T11:18:25.818Z,10.17
2019-02-04T11:19:25.800Z,10.10
2019-02-04T11:20:26.625Z,10.14
2019-02-04T11:21:25.774Z,10.17
2019-02-04T11:22:25.741Z,9.97
2019-02-04T11:23:29.008Z,9.86
2019-02-04T11:24:25.764Z,9.79
2019-02-04T11:25:25.769Z,9.99
2019-02-04T11:26:25.734Z,10.10
2019-02-04T11:27:25.724Z,10.24
2019-02-04T11:28:25.737Z,9.75
2019-02-04T11:29:25.667Z,9.13
2019-02-04T11:30:25.650Z,8.97
2019-02-04T11:31:25.642Z,8.73
2019-02-04T11:32:25.661Z,8.51
2019-02-04T11:33:25.666Z,8.48
2019-02-04T11:34:25.614Z,8.20
2019-02-04T11:35:25.626Z,8.03
2019-02-04T11:36:25.587Z,8.20
2019-02-04T11:37:25.572Z,8.10
2019-02-04T11:38:25.600Z,8.36
2019-02-04T11:39:25.566Z,8.79
2019-02-04T11:40:25.549Z,9.10
2019-02-04T11:41:25.564Z,9.27
2019-02-04T11:42:25.514Z,9.73
2019-02-04T11:43:25.536Z,10.03
2019-02-04T11:44:25.500Z,10.28
2019-02-04T11:45:25.524Z,10.47
2019-02-04T11:46:25.473Z,10.73
2019-02-04T11:47:25.515Z,10.91
2019-02-04T11:48:25.447Z,10.77
2019-02-04T11:49:25.457Z,10.73
2019-02-04T11:50:25.424Z,10.94
2019-02-04T11:51:25.413Z,11.13
2019-02-04T11:52:25.433Z,10.99
2019-02-04T11:53:32.993Z,10.88
2019-02-04T11:54:26.388Z,10.92
2019-02-04T11:55:25.374Z,10.80
2019-02-04T11:56:26.421Z,11.06
2019-02-04T11:57:25.348Z,11.20
2019-02-04T11:58:26.190Z,11.29
2019-02-04T11:59:25.344Z,11.27
2019-02-04T12:00:25.341Z,11.06
2019-02-04T12:01:25.338Z,10.73
2019-02-04T12:02:34.405Z,10.94
2019-02-04T12:03:26.281Z,11.10
2019-02-04T12:04:25.279Z,11.41
2019-02-04T12:05:25.268Z,11.54
2019-02-04T12:06:25.260Z,11.44
2019-02-04T12:07:25.235Z,11.39
2019-02-04T12:08:25.240Z,11.24
2019-02-04T12:09:25.221Z,10.70
2019-02-04T12:10:25.208Z,10.60
2019-02-04T12:11:25.201Z,10.33
2019-02-04T12:12:25.180Z,10.07
2019-02-04T12:13:25.184Z,10.14
2019-02-04T12:14:25.175Z,10.12
2019-02-04T12:15:25.185Z,9.94
2019-02-04T12:16:25.189Z,9.64
2019-02-04T12:17:25.138Z,9.63
2019-02-04T12:18:25.113Z,9.60
2019-02-04T12:19:25.105Z,9.32
2019-02-04T12:20:25.101Z,9.34
2019-02-04T12:21:25.086Z,9.32
2019-02-04T12:22:25.091Z,9.45
2019-02-04T12:23:25.093Z,9.38
2019-02-04T12:24:25.049Z,9.23
2019-02-04T12:25:25.042Z,9.09
2019-02-04T12:26:25.033Z,9.09
2019-02-04T12:27:31.745Z,8.99
2019-02-04T12:28:26.021Z,8.96
2019-02-04T12:29:25.005Z,8.84
2019-02-04T12:30:24.982Z,8.63
2019-02-04T12:31:24.973Z,8.54
2019-02-04T12:32:24.976Z,8.36
2019-02-04T12:33:24.951Z,8.20
2019-02-04T12:34:24.966Z,8.04
2019-02-04T12:35:24.930Z,8.04
2019-02-04T12:36:24.924Z,8.20
2019-02-04T12:37:25.004Z,8.15
2019-02-04T12:38:24.899Z,8.07
2019-02-04T12:39:24.889Z,8.00
2019-02-04T12:40:24.872Z,7.94
2019-02-04T12:41:24.862Z,8.18
2019-02-04T12:42:24.848Z,8.26
2019-02-04T12:43:24.891Z,8.36
2019-02-04T12:44:24.828Z,8.42
2019-02-04T12:45:24.813Z,8.37
2019-02-04T12:46:24.815Z,8.30
2019-02-04T12:47:24.798Z,8.29
2019-02-04T12:48:24.785Z,8.07
2019-02-04T12:49:24.809Z,7.78
2019-02-04T12:50:24.764Z,7.66
2019-02-04T12:51:33.295Z,7.84
2019-02-04T12:52:25.745Z,7.66
2019-02-04T12:53:24.736Z,8.00
2019-02-04T12:54:26.715Z,8.26
2019-02-04T12:55:24.711Z,8.15
2019-02-04T12:56:24.814Z,8.00
2019-02-04T12:57:24.680Z,7.77
2019-02-04T12:58:24.674Z,7.69
2019-02-04T12:59:24.673Z,7.67
2019-02-04T13:00:24.653Z,7.58
2019-02-04T13:01:24.645Z,7.63
2019-02-04T13:02:24.636Z,7.96
2019-02-04T13:03:24.617Z,8.18